createdAt,value
2022-10-21T00:00:05.942Z,9.86
2022-10-21T00:01:05.931Z,9.86
2022-10-21T00:02:05.926Z,9.87
2022-10-21T00:03:05.918Z,9.80
2022-10-21T00:04:05.913Z,9.91
2022-10-21T00:05:05.912Z,9.80
2022-10-21T00:06:05.914Z,9.91
2022-10-21T00:07:05.917Z,9.83
2022-10-21T00:08:05.903Z,9.84
2022-10-21T00:09:05.942Z,9.84
2022-10-21T00:10:05.901Z,9.87
2022-10-21T00:11:05.903Z,9.95
2022-10-21T00:12:05.887Z,10.01
2022-10-21T00:13:05.876Z,10.02
2022-10-21T00:14:05.863Z,9.98
2022-10-21T00:15:05.863Z,9.92
2022-10-21T00:16:05.859Z,9.95
2022-10-21T00:17:05.852Z,9.97
2022-10-21T00:18:05.845Z,9.92
2022-10-21T00:19:05.840Z,9.97
2022-10-21T00:20:05.854Z,9.94
2022-10-21T00:21:05.837Z,9.92
2022-10-21T00:22:05.829Z,9.95
2022-10-21T00:23:05.829Z,9.91
2022-10-21T00:24:05.822Z,9.99
2022-10-21T00:25:05.809Z,9.91
2022-10-21T00:26:05.819Z,9.92
2022-10-21T00:27:05.806Z,9.94
2022-10-21T00:28:05.801Z,9.86
2022-10-21T00:29:05.799Z,9.82
2022-10-21T00:30:05.791Z,9.83
2022-10-21T00:31:05.787Z,9.84
2022-10-21T00:32:05.803Z,9.86
2022-10-21T00:33:05.772Z,9.94
2022-10-21T00:34:05.762Z,9.84
2022-10-21T00:35:05.788Z,9.94
2022-10-21T00:36:05.768Z,9.87
2022-10-21T00:37:05.770Z,9.92
2022-10-21T00:38:05.772Z,9.89
2022-10-21T00:39:05.739Z,9.95
2022-10-21T00:40:05.740Z,9.91
2022-10-21T00:41:05.737Z,9.99
2022-10-21T00:42:05.724Z,10.01
2022-10-21T00:43:05.737Z,9.99
2022-10-21T00:44:05.731Z,9.95
2022-10-21T00:45:05.729Z,10.01
2022-10-21T00:46:05.698Z,9.95
2022-10-21T00:47:05.736Z,9.95
2022-10-21T00:48:05.706Z,9.94
2022-10-21T00:49:05.691Z,9.99
2022-10-21T00:50:05.693Z,10.04
2022-10-21T00:51:05.696Z,10.04
2022-10-21T00:52:05.688Z,9.99
2022-10-21T00:53:05.681Z,10.05
2022-10-21T00:54:05.675Z,10.10
2022-10-21T00:55:05.685Z,10.04
2022-10-21T00:56:05.677Z,10.01
2022-10-21T00:57:05.654Z,10.07
2022-10-21T00:58:05.681Z,10.09
2022-10-21T00:59:05.653Z,10.07
2022-10-21T01:00:05.655Z,9.99
2022-10-21T01:01:05.702Z,10.09
2022-10-21T01:02:05.640Z,10.12
2022-10-21T01:03:05.649Z,10.02
2022-10-21T01:04:05.613Z,10.07
2022-10-21T01:05:05.611Z,10.10
2022-10-21T01:06:05.622Z,10.12
2022-10-21T01:07:05.617Z,10.19
2022-10-21T01:08:05.602Z,10.05
2022-10-21T01:09:05.742Z,10.10
2022-10-21T01:10:05.603Z,10.15
2022-10-21T01:11:05.595Z,10.12
2022-10-21T01:12:05.602Z,10.13
2022-10-21T01:13:05.573Z,10.16
2022-10-21T01:14:05.563Z,10.15
2022-10-21T01:15:05.569Z,10.10
2022-10-21T01:16:05.565Z,10.20
2022-10-21T01:17:15.623Z,10.16
2022-10-21T01:18:05.574Z,10.15
2022-10-21T01:19:05.569Z,10.19
2022-10-21T01:20:05.542Z,10.15
2022-10-21T01:21:05.547Z,10.17
2022-10-21T01:22:05.536Z,10.07
2022-10-21T01:23:05.522Z,10.02
2022-10-21T01:25:05.511Z,10.05
2022-10-21T01:26:05.514Z,10.07
2022-10-21T01:27:05.505Z,10.09
2022-10-21T01:28:05.538Z,10.02
2022-10-21T01:29:05.492Z,10.07
2022-10-21T01:30:05.497Z,10.10
2022-10-21T01:31:05.481Z,10.09
2022-10-21T01:32:05.475Z,10.07
2022-10-21T01:33:05.526Z,10.07
2022-10-21T01:34:05.461Z,10.07
2022-10-21T01:35:05.466Z,10.16
2022-10-21T01:36:05.478Z,10.12
2022-10-21T01:37:05.457Z,10.07
2022-10-21T01:38:05.457Z,10.10
2022-10-21T01:39:05.443Z,10.07
2022-10-21T01:40:05.458Z,10.13
2022-10-21T01:41:05.432Z,10.10
2022-10-21T01:42:05.460Z,10.04
2022-10-21T01:43:05.543Z,10.09
2022-10-21T01:44:05.431Z,10.09
2022-10-21T01:45:05.413Z,10.05
2022-10-21T01:46:05.413Z,10.09
2022-10-21T01:47:05.412Z,10.12
2022-10-21T01:48:05.401Z,10.02
2022-10-21T01:49:05.441Z,10.05
2022-10-21T01:50:05.384Z,9.99
2022-10-21T01:51:05.391Z,10.01
2022-10-21T01:52:05.419Z,10.09
2022-10-21T01:53:05.378Z,10.13
2022-10-21T01:54:05.371Z,10.12
2022-10-21T01:55:05.393Z,10.09
2022-10-21T01:56:05.363Z,10.07
2022-10-21T01:57:05.357Z,10.15
2022-10-21T01:58:05.423Z,10.17
2022-10-21T01:59:05.353Z,10.20
2022-10-21T02:00:05.346Z,10.10
2022-10-21T02:01:05.379Z,10.10
2022-10-21T02:02:05.349Z,10.19
2022-10-21T02:03:05.342Z,10.23
2022-10-21T02:04:05.325Z,10.22
2022-10-21T02:05:05.329Z,10.26
2022-10-21T02:06:05.308Z,10.26
2022-10-21T02:07:05.404Z,10.16
2022-10-21T02:08:05.300Z,10.22
2022-10-21T02:09:05.413Z,10.17
2022-10-21T02:10:05.334Z,10.26
2022-10-21T02:11:05.280Z,10.17
2022-10-21T02:12:05.298Z,10.22
2022-10-21T02:13:05.275Z,10.22
2022-10-21T02:14:05.277Z,10.20
2022-10-21T02:15:05.280Z,10.26
2022-10-21T02:16:05.415Z,10.25
2022-10-21T02:17:05.265Z,10.19
2022-10-21T02:18:05.248Z,10.19
2022-10-21T02:19:05.245Z,10.26
2022-10-21T02:20:05.243Z,10.26
2022-10-21T02:21:05.247Z,10.23
2022-10-21T02:22:05.235Z,10.22
2022-10-21T02:23:05.243Z,10.22
2022-10-21T02:24:05.234Z,10.23
2022-10-21T02:25:05.251Z,10.22
2022-10-21T02:26:05.220Z,10.34
2022-10-21T02:27:05.219Z,10.34
2022-10-21T02:28:05.217Z,10.33
2022-10-21T02:29:05.198Z,10.33
2022-10-21T02:30:05.202Z,10.31
2022-10-21T02:31:05.186Z,10.33
2022-10-21T02:32:05.247Z,10.33
2022-10-21T02:33:05.179Z,10.20
2022-10-21T02:34:05.198Z,10.19
2022-10-21T02:35:05.171Z,10.17
2022-10-21T02:36:05.180Z,10.23
2022-10-21T02:37:05.163Z,10.20
2022-10-21T02:38:05.178Z,10.25
2022-10-21T02:39:05.194Z,10.26
2022-10-21T02:40:05.155Z,10.33
2022-10-21T02:41:05.144Z,10.37
2022-10-21T02:42:05.140Z,10.34
2022-10-21T02:43:05.201Z,10.33
2022-10-21T02:44:05.132Z,10.35
2022-10-21T02:45:05.124Z,10.23
2022-10-21T02:46:05.126Z,10.33
2022-10-21T02:47:05.209Z,10.37
2022-10-21T02:48:05.112Z,10.33
2022-10-21T02:49:05.109Z,10.33
2022-10-21T02:50:05.130Z,10.42
2022-10-21T02:51:05.107Z,10.37
2022-10-21T02:52:05.137Z,10.40
2022-10-21T02:53:05.106Z,10.38
2022-10-21T02:54:05.086Z,10.34
2022-10-21T02:55:05.088Z,10.38
2022-10-21T02:56:05.069Z,10.41
2022-10-21T02:57:05.077Z,10.33
2022-10-21T02:58:05.057Z,10.40
2022-10-21T02:59:05.055Z,10.37
2022-10-21T03:00:05.052Z,10.41
2022-10-21T03:01:05.100Z,10.44
2022-10-21T03:02:05.050Z,10.48
2022-10-21T03:03:05.070Z,10.48
2022-10-21T03:04:05.052Z,10.40
2022-10-21T03:05:05.056Z,10.40
2022-10-21T03:06:05.036Z,10.54
2022-10-21T03:07:05.036Z,10.51
2022-10-21T03:08:05.014Z,10.46
2022-10-21T03:09:05.115Z,10.42
2022-10-21T03:10:04.992Z,10.42
2022-10-21T03:11:05.027Z,10.44
2022-10-21T03:12:04.999Z,10.44
2022-10-21T03:13:05.050Z,10.51
2022-10-21T03:14:05.011Z,10.46
2022-10-21T03:15:04.980Z,10.34
2022-10-21T03:16:05.058Z,10.51
2022-10-21T03:17:04.984Z,10.49
2022-10-21T03:18:04.962Z,10.46
2022-10-21T03:19:04.967Z,10.41
2022-10-21T03:20:04.963Z,10.41
2022-10-21T03:21:04.960Z,10.53
2022-10-21T03:22:04.956Z,10.46
2022-10-21T03:23:04.953Z,10.44
2022-10-21T03:24:10.910Z,10.49
2022-10-21T03:25:04.945Z,10.54
2022-10-21T03:26:04.949Z,10.51
2022-10-21T03:27:04.952Z,10.53
2022-10-21T03:28:04.932Z,10.48
2022-10-21T03:29:04.929Z,10.46
2022-10-21T03:30:04.926Z,10.46
2022-10-21T03:31:04.933Z,10.44
2022-10-21T03:32:04.901Z,10.35
2022-10-21T03:33:04.909Z,10.49
2022-10-21T03:34:04.897Z,10.49
2022-10-21T03:35:04.891Z,10.44
2022-10-21T03:36:04.896Z,10.44
2022-10-21T03:37:04.877Z,10.35
2022-10-21T03:38:04.883Z,10.40
2022-10-21T03:39:04.872Z,10.57
2022-10-21T03:40:06.410Z,10.37
2022-10-21T03:41:04.875Z,10.48
2022-10-21T03:42:04.875Z,10.44
2022-10-21T03:43:04.846Z,10.46
2022-10-21T03:44:04.846Z,10.44
2022-10-21T03:45:12.028Z,10.49
2022-10-21T03:47:08.837Z,10.51
2022-10-21T03:48:08.815Z,10.46
2022-10-21T03:49:15.553Z,10.46
2022-10-21T03:50:11.939Z,10.54
2022-10-21T03:51:08.799Z,10.44
2022-10-21T03:52:08.797Z,10.49
2022-10-21T03:53:18.637Z,10.53
2022-10-21T03:54:08.849Z,10.48
2022-10-21T03:55:08.772Z,10.49
2022-10-21T03:56:08.775Z,10.42
2022-10-21T03:57:08.774Z,10.57
2022-10-21T03:58:08.770Z,10.57
2022-10-21T03:59:08.767Z,10.54
2022-10-21T04:00:08.792Z,10.57
2022-10-21T04:01:08.744Z,10.53
2022-10-21T04:02:08.745Z,10.59
2022-10-21T04:03:08.783Z,10.46
2022-10-21T04:04:08.735Z,10.48
2022-10-21T04:05:08.733Z,10.51
2022-10-21T04:06:08.728Z,10.49
2022-10-21T04:07:08.730Z,10.48
2022-10-21T04:08:08.716Z,10.51
2022-10-21T04:09:08.776Z,10.54
2022-10-21T04:10:08.708Z,10.56
2022-10-21T04:11:08.703Z,10.59
2022-10-21T04:12:08.696Z,10.59
2022-10-21T04:13:08.695Z,10.61
2022-10-21T04:14:11.597Z,10.57
2022-10-21T04:15:08.688Z,10.54
2022-10-21T04:16:08.689Z,10.51
2022-10-21T04:17:08.671Z,10.57
2022-10-21T04:18:08.674Z,10.61
2022-10-21T04:19:08.666Z,10.59
2022-10-21T04:20:08.657Z,10.59
2022-10-21T04:21:08.659Z,10.46
2022-10-21T04:22:08.656Z,10.57
2022-10-21T04:23:08.644Z,10.53
2022-10-21T04:24:08.640Z,10.54
2022-10-21T04:25:08.640Z,10.48
2022-10-21T04:26:08.634Z,10.44
2022-10-21T04:27:08.623Z,10.41
2022-10-21T04:28:08.624Z,10.53
2022-10-21T04:29:08.628Z,10.46
2022-10-21T04:30:08.625Z,10.48
2022-10-21T04:31:08.605Z,10.59
2022-10-21T04:32:08.602Z,10.57
2022-10-21T04:33:08.615Z,10.54
2022-10-21T04:34:08.598Z,10.61
2022-10-21T04:35:08.588Z,10.54
2022-10-21T04:36:08.582Z,10.57
2022-10-21T04:37:08.575Z,10.59
2022-10-21T04:38:08.583Z,10.51
2022-10-21T04:39:08.570Z,10.57
2022-10-21T04:40:08.565Z,10.48
2022-10-21T04:41:08.567Z,10.49
2022-10-21T04:42:08.563Z,10.42
2022-10-21T04:43:08.557Z,10.51
2022-10-21T04:44:08.546Z,10.48
2022-10-21T04:45:08.553Z,10.42
2022-10-21T04:46:09.999Z,10.44
2022-10-21T04:47:08.532Z,10.40
2022-10-21T04:48:08.528Z,10.44
2022-10-21T04:49:08.520Z,10.40
2022-10-21T04:50:08.527Z,10.41
2022-10-21T04:51:08.524Z,10.46
2022-10-21T04:52:08.535Z,10.44
2022-10-21T04:53:08.508Z,10.54
2022-10-21T04:54:08.505Z,10.35
2022-10-21T04:55:08.494Z,10.41
2022-10-21T04:56:08.492Z,10.49
2022-10-21T04:57:08.490Z,10.46
2022-10-21T04:58:08.482Z,10.51
2022-10-21T04:59:08.488Z,10.42
2022-10-21T05:00:08.478Z,10.42
2022-10-21T05:01:08.518Z,10.48
2022-10-21T05:02:08.474Z,10.54
2022-10-21T05:03:08.460Z,10.54
2022-10-21T05:04:08.462Z,10.49
2022-10-21T05:05:08.453Z,10.54
2022-10-21T05:06:08.461Z,10.49
2022-10-21T05:07:08.443Z,10.42
2022-10-21T05:08:11.503Z,10.49
2022-10-21T05:09:08.491Z,10.44
2022-10-21T05:10:08.446Z,10.57
2022-10-21T05:11:08.429Z,10.46
2022-10-21T05:12:08.460Z,10.61
2022-10-21T05:13:08.412Z,10.59
2022-10-21T05:14:08.412Z,10.42
2022-10-21T05:15:08.405Z,10.57
2022-10-21T05:16:08.414Z,10.57
2022-10-21T05:17:08.406Z,10.57
2022-10-21T05:18:08.411Z,10.48
2022-10-21T05:19:08.393Z,10.53
2022-10-21T05:20:08.386Z,10.44
2022-10-21T05:21:08.372Z,10.40
2022-10-21T05:22:08.368Z,10.46
2022-10-21T05:23:08.370Z,10.59
2022-10-21T05:24:08.373Z,10.44
2022-10-21T05:25:08.366Z,10.57
2022-10-21T05:26:08.370Z,10.51
2022-10-21T05:27:08.361Z,10.54
2022-10-21T05:28:08.357Z,10.53
2022-10-21T05:29:08.341Z,10.54
2022-10-21T05:30:08.335Z,10.64
2022-10-21T05:31:08.331Z,10.59
2022-10-21T05:32:08.330Z,10.49
2022-10-21T05:33:08.336Z,10.51
2022-10-21T05:34:08.316Z,10.60
2022-10-21T05:35:08.321Z,10.59
2022-10-21T05:36:08.317Z,10.57
2022-10-21T05:37:08.374Z,10.60
2022-10-21T05:38:08.315Z,10.54
2022-10-21T05:39:08.289Z,10.54
2022-10-21T05:40:08.287Z,10.57
2022-10-21T05:41:08.313Z,10.67
2022-10-21T05:42:08.291Z,10.51
2022-10-21T05:43:08.283Z,10.61
2022-10-21T05:44:08.278Z,10.59
2022-10-21T05:45:08.360Z,10.59
2022-10-21T05:46:08.294Z,10.63
2022-10-21T05:47:08.257Z,10.59
2022-10-21T05:48:08.257Z,10.61
2022-10-21T05:49:08.279Z,10.71
2022-10-21T05:50:08.259Z,10.61
2022-10-21T05:51:08.257Z,10.60
2022-10-21T05:52:08.271Z,10.61
2022-10-21T05:53:08.230Z,10.63
2022-10-21T05:54:08.222Z,10.61
2022-10-21T05:55:08.272Z,10.59
2022-10-21T05:56:08.224Z,10.56
2022-10-21T05:57:08.211Z,10.59
2022-10-21T05:58:08.217Z,10.67
2022-10-21T05:59:10.250Z,10.69
2022-10-21T06:00:08.217Z,10.60
2022-10-21T06:01:08.238Z,10.59
2022-10-21T06:02:08.199Z,10.63
2022-10-21T06:03:08.213Z,10.63
2022-10-21T06:04:08.178Z,10.63
2022-10-21T06:05:08.211Z,10.63
2022-10-21T06:06:08.177Z,10.56
2022-10-21T06:07:08.171Z,10.60
2022-10-21T06:08:08.204Z,10.64
2022-10-21T06:09:08.193Z,10.49
2022-10-21T06:10:08.163Z,10.56
2022-10-21T06:11:08.185Z,10.59
2022-10-21T06:12:08.162Z,10.59
2022-10-21T06:13:08.128Z,10.54
2022-10-21T06:14:08.138Z,10.54
2022-10-21T06:15:08.121Z,10.61
2022-10-21T06:16:08.123Z,10.59
2022-10-21T06:17:08.114Z,10.59
2022-10-21T06:18:08.145Z,10.56
2022-10-21T06:19:08.114Z,10.61
2022-10-21T06:20:08.108Z,10.69
2022-10-21T06:21:08.093Z,10.59
2022-10-21T06:22:08.095Z,10.60
2022-10-21T06:23:08.090Z,10.59
2022-10-21T06:24:08.095Z,10.54
2022-10-21T06:25:08.119Z,10.64
2022-10-21T06:26:08.076Z,10.60
2022-10-21T06:27:08.067Z,10.63
2022-10-21T06:28:08.071Z,10.59
2022-10-21T06:29:08.066Z,10.61
2022-10-21T06:30:08.055Z,10.61
2022-10-21T06:31:08.085Z,10.60
2022-10-21T06:32:08.045Z,10.64
2022-10-21T06:33:08.051Z,10.61
2022-10-21T06:34:08.137Z,10.59
2022-10-21T06:35:08.042Z,10.57
2022-10-21T06:36:08.034Z,10.54
2022-10-21T06:37:08.032Z,10.60
2022-10-21T06:38:08.062Z,10.67
2022-10-21T06:39:08.017Z,10.60
2022-10-21T06:40:08.004Z,10.63
2022-10-21T06:41:10.735Z,10.59
2022-10-21T06:42:07.992Z,10.56
2022-10-21T06:43:08.039Z,10.57
2022-10-21T06:44:08.013Z,10.60
2022-10-21T06:45:07.985Z,10.64
2022-10-21T06:46:07.983Z,10.60
2022-10-21T06:47:07.974Z,10.63
2022-10-21T06:48:07.973Z,10.61
2022-10-21T06:49:07.963Z,10.57
2022-10-21T06:50:07.968Z,10.64
2022-10-21T06:51:07.954Z,10.54
2022-10-21T06:52:07.992Z,10.69
2022-10-21T06:53:07.960Z,10.74
2022-10-21T06:54:07.946Z,10.69
2022-10-21T06:55:07.938Z,10.71
2022-10-21T06:56:07.942Z,10.67
2022-10-21T06:57:07.953Z,10.68
2022-10-21T06:58:07.929Z,10.71
2022-10-21T06:59:07.920Z,10.68
2022-10-21T07:00:07.911Z,10.60
2022-10-21T07:01:16.530Z,10.68
2022-10-21T07:02:07.898Z,10.67
2022-10-21T07:03:07.925Z,10.67
2022-10-21T07:04:07.905Z,10.57
2022-10-21T07:05:07.884Z,10.57
2022-10-21T07:06:07.885Z,10.71
2022-10-21T07:07:07.901Z,10.68
2022-10-21T07:08:10.571Z,10.68
2022-10-21T07:09:07.918Z,10.75
2022-10-21T07:10:07.944Z,10.78
2022-10-21T07:11:07.855Z,10.76
2022-10-21T07:12:07.866Z,10.76
2022-10-21T07:13:07.869Z,10.78
2022-10-21T07:14:07.847Z,10.76
2022-10-21T07:15:07.857Z,10.87
2022-10-21T07:16:07.838Z,10.94
2022-10-21T07:17:07.936Z,11.05
2022-10-21T07:18:07.831Z,11.22
2022-10-21T07:19:07.843Z,11.37
2022-10-21T07:20:07.838Z,11.52
2022-10-21T07:21:07.829Z,11.63
2022-10-21T07:22:07.811Z,11.70
2022-10-21T07:23:07.814Z,11.87
2022-10-21T07:24:07.888Z,12.03
2022-10-21T07:25:07.801Z,11.99
2022-10-21T07:26:07.798Z,11.95
2022-10-21T07:27:07.797Z,11.87
2022-10-21T07:28:07.795Z,11.68
2022-10-21T07:29:07.780Z,11.52
2022-10-21T07:30:07.783Z,11.60
2022-10-21T07:31:07.788Z,11.47
2022-10-21T07:32:07.767Z,11.51
2022-10-21T07:33:07.769Z,11.36
2022-10-21T07:34:07.774Z,11.35
2022-10-21T07:35:07.751Z,11.32
2022-10-21T07:36:07.753Z,11.35
2022-10-21T07:37:07.743Z,11.30
2022-10-21T07:38:07.740Z,11.29
2022-10-21T07:39:07.767Z,11.25
2022-10-21T07:40:07.755Z,11.17
2022-10-21T07:41:07.731Z,11.25
2022-10-21T07:42:07.731Z,11.26
2022-10-21T07:43:07.756Z,11.22
2022-10-21T07:44:07.713Z,11.22
2022-10-21T07:45:07.719Z,11.22
2022-10-21T07:46:07.707Z,11.22
2022-10-21T07:47:07.707Z,11.25
2022-10-21T07:48:07.705Z,11.22
2022-10-21T07:49:07.708Z,11.25
2022-10-21T07:50:07.702Z,11.25
2022-10-21T07:51:07.694Z,11.29
2022-10-21T07:52:07.716Z,11.29
2022-10-21T07:53:12.303Z,11.11
2022-10-21T07:54:07.672Z,11.11
2022-10-21T07:55:07.664Z,11.22
2022-10-21T07:56:07.687Z,11.23
2022-10-21T07:57:07.669Z,11.18
2022-10-21T07:58:07.676Z,11.17
2022-10-21T07:59:12.437Z,11.14
2022-10-21T08:00:07.676Z,11.17
2022-10-21T08:01:07.713Z,11.19
2022-10-21T08:02:07.682Z,11.14
2022-10-21T08:03:07.658Z,11.11
2022-10-21T08:04:07.647Z,11.23
2022-10-21T08:05:07.625Z,11.14
2022-10-21T08:06:07.629Z,11.29
2022-10-21T08:07:10.330Z,11.22
2022-10-21T08:08:07.613Z,11.27
2022-10-21T08:09:07.769Z,11.23
2022-10-21T08:10:07.602Z,11.25
2022-10-21T08:11:07.610Z,11.22
2022-10-21T08:12:10.399Z,11.29
2022-10-21T08:13:07.631Z,11.18
2022-10-21T08:14:07.597Z,11.23
2022-10-21T08:15:07.594Z,11.29
2022-10-21T08:16:07.594Z,11.33
2022-10-21T08:17:07.594Z,11.22
2022-10-21T08:18:07.587Z,11.35
2022-10-21T08:19:07.570Z,11.36
2022-10-21T08:20:07.573Z,11.32
2022-10-21T08:21:07.556Z,11.54
2022-10-21T08:22:07.563Z,11.57
2022-10-21T08:23:07.552Z,11.62
2022-10-21T08:24:07.561Z,11.65
2022-10-21T08:25:07.539Z,11.60
2022-10-21T08:26:07.552Z,11.69
2022-10-21T08:27:07.579Z,11.57
2022-10-21T08:28:07.533Z,11.69
2022-10-21T08:29:07.538Z,11.62
2022-10-21T08:30:07.529Z,11.72
2022-10-21T08:31:07.524Z,11.69
2022-10-21T08:32:07.517Z,11.78
2022-10-21T08:33:07.501Z,11.73
2022-10-21T08:34:07.514Z,11.78
2022-10-21T08:35:07.508Z,11.86
2022-10-21T08:36:07.516Z,11.83
2022-10-21T08:37:07.518Z,11.91
2022-10-21T08:39:07.496Z,11.91
2022-10-21T08:40:07.488Z,11.94
2022-10-21T08:41:07.491Z,11.88
2022-10-21T08:42:07.569Z,11.97
2022-10-21T08:43:07.515Z,12.00
2022-10-21T08:44:07.476Z,11.97
2022-10-21T08:45:07.477Z,11.84
2022-10-21T08:46:07.485Z,11.95
2022-10-21T08:47:10.575Z,11.99
2022-10-21T08:48:07.468Z,11.94
2022-10-21T08:49:07.460Z,11.99
2022-10-21T08:50:07.491Z,12.00
2022-10-21T08:51:07.446Z,12.04
2022-10-21T08:52:07.443Z,12.10
2022-10-21T08:53:07.448Z,12.10
2022-10-21T08:54:07.438Z,12.18
2022-10-21T08:55:07.523Z,12.13
2022-10-21T08:56:07.485Z,12.21
2022-10-21T08:57:07.428Z,12.21
2022-10-21T08:58:07.424Z,12.21
2022-10-21T08:59:07.417Z,12.31
2022-10-21T09:00:07.413Z,12.29
2022-10-21T09:01:07.417Z,12.37
2022-10-21T09:02:07.412Z,12.31
2022-10-21T09:03:07.444Z,12.28
2022-10-21T09:04:07.410Z,12.37
2022-10-21T09:05:07.419Z,12.36
2022-10-21T09:06:07.397Z,12.35
2022-10-21T09:07:07.420Z,12.43
2022-10-21T09:08:07.387Z,12.36
2022-10-21T09:09:07.475Z,12.43
2022-10-21T09:10:07.378Z,12.37
2022-10-21T09:11:07.410Z,12.42
2022-10-21T09:12:07.376Z,12.39
2022-10-21T09:13:07.371Z,12.42
2022-10-21T09:14:07.370Z,12.49
2022-10-21T09:15:10.465Z,12.45
2022-10-21T09:16:07.358Z,12.47
2022-10-21T09:17:07.384Z,12.43
2022-10-21T09:18:07.394Z,12.46
2022-10-21T09:19:07.365Z,12.49
2022-10-21T09:20:07.374Z,12.50
2022-10-21T09:21:07.354Z,12.58
2022-10-21T09:22:30.018Z,12.60
2022-10-21T09:23:07.351Z,12.58
2022-10-21T09:24:07.403Z,12.60
2022-10-21T09:25:07.351Z,12.65
2022-10-21T09:26:07.353Z,12.73
2022-10-21T09:27:07.336Z,12.87
2022-10-21T09:28:07.321Z,12.97
2022-10-21T09:29:07.379Z,13.05
2022-10-21T09:30:07.327Z,13.19
2022-10-21T09:31:07.323Z,13.38
2022-10-21T09:32:07.319Z,13.37
2022-10-21T09:33:07.335Z,13.35
2022-10-21T09:34:07.314Z,13.47
2022-10-21T09:35:07.322Z,13.50
2022-10-21T09:36:07.299Z,13.49
2022-10-21T09:37:07.306Z,13.57
2022-10-21T09:38:07.316Z,13.57
2022-10-21T09:39:07.304Z,13.60
2022-10-21T09:40:07.296Z,13.68
2022-10-21T09:41:07.306Z,13.67
2022-10-21T09:42:13.473Z,13.62
2022-10-21T09:43:07.287Z,13.59
2022-10-21T09:44:07.284Z,13.57
2022-10-21T09:45:07.283Z,13.57
2022-10-21T09:46:07.283Z,13.52
2022-10-21T09:47:07.291Z,13.44
2022-10-21T09:48:07.290Z,13.46
2022-10-21T09:49:36.732Z,13.53
2022-10-21T09:50:08.310Z,13.49
2022-10-21T09:51:07.266Z,13.38
2022-10-21T09:52:07.274Z,13.44
2022-10-21T09:53:07.266Z,13.56
2022-10-21T09:54:07.270Z,13.44
2022-10-21T09:55:07.268Z,13.39
2022-10-21T09:56:07.258Z,13.39
2022-10-21T09:57:07.266Z,13.38
2022-10-21T09:58:07.258Z,13.42
2022-10-21T09:59:07.910Z,13.44
2022-10-21T10:00:11.055Z,13.46
2022-10-21T10:01:07.269Z,13.41
2022-10-21T10:02:07.323Z,13.41
2022-10-21T10:03:07.235Z,13.50
2022-10-21T10:04:07.232Z,13.42
2022-10-21T10:05:07.231Z,13.56
2022-10-21T10:06:07.234Z,13.47
2022-10-21T10:07:07.246Z,13.46
2022-10-21T10:08:07.235Z,13.50
2022-10-21T10:09:07.237Z,13.56
2022-10-21T10:10:07.261Z,13.57
2022-10-21T10:11:07.813Z,13.60
2022-10-21T10:12:07.290Z,13.71
2022-10-21T10:13:07.232Z,13.68
2022-10-21T10:14:07.221Z,13.77
2022-10-21T10:15:07.208Z,13.71
2022-10-21T10:16:07.226Z,13.71
2022-10-21T10:17:07.210Z,13.70
2022-10-21T10:18:07.213Z,13.77
2022-10-21T10:19:07.201Z,13.72
2022-10-21T10:20:07.206Z,13.79
2022-10-21T10:21:07.216Z,13.85
2022-10-21T10:22:10.247Z,13.90
2022-10-21T10:23:07.188Z,13.92
2022-10-21T10:24:07.188Z,13.92
2022-10-21T10:25:07.189Z,14.07
2022-10-21T10:26:07.184Z,14.15
2022-10-21T10:27:07.190Z,14.29
2022-10-21T10:28:07.170Z,14.33
2022-10-21T10:29:07.171Z,14.44
2022-10-21T10:30:07.199Z,14.47
2022-10-21T10:31:07.184Z,14.47
2022-10-21T10:32:07.197Z,14.50
2022-10-21T10:33:07.164Z,14.60
2022-10-21T10:34:07.166Z,14.59
2022-10-21T10:35:07.187Z,14.66
2022-10-21T10:36:09.393Z,14.55
2022-10-21T10:37:07.164Z,14.65
2022-10-21T10:38:07.254Z,14.66
2022-10-21T10:39:07.160Z,14.53
2022-10-21T10:40:07.150Z,14.50
2022-10-21T10:41:07.148Z,14.53
2022-10-21T10:42:07.145Z,14.53
2022-10-21T10:43:07.138Z,14.53
2022-10-21T10:44:07.135Z,14.59
2022-10-21T10:45:07.132Z,14.47
2022-10-21T10:46:07.154Z,14.37
2022-10-21T10:47:07.145Z,14.43
2022-10-21T10:48:07.160Z,14.37
2022-10-21T10:49:07.157Z,14.37
2022-10-21T10:50:07.129Z,14.33
2022-10-21T10:51:07.138Z,14.29
2022-10-21T10:52:07.131Z,14.35
2022-10-21T10:53:07.139Z,14.32
2022-10-21T10:54:07.227Z,14.33
2022-10-21T10:55:07.133Z,14.32
2022-10-21T10:56:07.114Z,14.36
2022-10-21T10:57:07.108Z,14.36
2022-10-21T10:58:11.701Z,14.40
2022-10-21T10:59:07.116Z,14.35
2022-10-21T11:00:07.134Z,14.41
2022-10-21T11:01:07.262Z,14.44
2022-10-21T11:02:07.101Z,14.48
2022-10-21T11:03:07.103Z,14.45
2022-10-21T11:04:07.101Z,14.54
2022-10-21T11:05:07.131Z,14.54
2022-10-21T11:06:07.095Z,14.51
2022-10-21T11:07:07.097Z,14.51
2022-10-21T11:08:07.095Z,14.45
2022-10-21T11:09:07.170Z,14.45
2022-10-21T11:10:07.224Z,14.50
2022-10-21T11:11:07.081Z,14.51
2022-10-21T11:12:07.090Z,14.50
2022-10-21T11:13:07.092Z,14.54
2022-10-21T11:14:07.083Z,14.62
2022-10-21T11:15:07.081Z,14.60
2022-10-21T11:16:07.074Z,14.59
2022-10-21T11:17:07.089Z,14.54
2022-10-21T11:18:23.253Z,14.50
2022-10-21T11:19:07.139Z,14.47
2022-10-21T11:20:07.089Z,14.43
2022-10-21T11:21:07.061Z,14.47
2022-10-21T11:22:07.070Z,14.48
2022-10-21T11:24:07.073Z,14.58
2022-10-21T11:25:07.068Z,14.48
2022-10-21T11:26:07.172Z,14.48
2022-10-21T11:27:07.082Z,14.53
2022-10-21T11:28:07.082Z,14.54
2022-10-21T11:29:07.069Z,14.59
2022-10-21T11:30:07.051Z,14.48
2022-10-21T11:31:07.056Z,14.51
2022-10-21T11:32:11.656Z,14.63
2022-10-21T11:33:07.054Z,14.63
2022-10-21T11:34:11.468Z,14.59
2022-10-21T11:35:07.035Z,14.60
2022-10-21T11:36:07.040Z,14.68
2022-10-21T11:37:07.040Z,14.68
2022-10-21T11:38:07.052Z,14.70
2022-10-21T11:39:07.058Z,14.63
2022-10-21T11:40:07.047Z,14.72
2022-10-21T11:41:07.105Z,14.72
2022-10-21T11:42:07.130Z,14.70
2022-10-21T11:43:07.063Z,14.68
2022-10-21T11:44:07.030Z,14.66
2022-10-21T11:45:07.029Z,14.66
2022-10-21T11:46:07.060Z,14.69
2022-10-21T11:47:07.015Z,14.66
2022-10-21T11:48:07.026Z,14.70
2022-10-21T11:49:07.017Z,14.69
2022-10-21T11:50:07.060Z,14.68
2022-10-21T11:51:07.019Z,14.68
2022-10-21T11:52:07.046Z,14.66
2022-10-21T11:53:07.009Z,14.78
2022-10-21T11:54:07.027Z,14.68
2022-10-21T11:55:10.472Z,14.69
2022-10-21T11:56:07.010Z,14.73
2022-10-21T11:57:07.002Z,14.73
2022-10-21T11:58:07.116Z,14.66
2022-10-21T11:59:06.990Z,14.66
2022-10-21T12:00:07.007Z,14.66
2022-10-21T12:01:06.999Z,14.66
2022-10-21T12:02:07.024Z,14.78
2022-10-21T12:03:07.018Z,14.72
2022-10-21T12:04:07.007Z,14.66
2022-10-21T12:05:06.990Z,14.78
2022-10-21T12:06:06.987Z,14.70
2022-10-21T12:07:11.014Z,14.66
2022-10-21T12:08:06.980Z,14.68
2022-10-21T12:09:06.995Z,14.66
2022-10-21T12:10:07.058Z,14.68
2022-10-21T12:11:06.979Z,14.68
2022-10-21T12:12:06.979Z,14.79
2022-10-21T12:13:06.987Z,14.70
2022-10-21T12:14:07.076Z,14.81
2022-10-21T12:15:06.973Z,14.77
2022-10-21T12:16:06.985Z,14.79
2022-10-21T12:17:06.980Z,14.79
2022-10-21T12:18:06.986Z,14.82
2022-10-21T12:19:06.992Z,14.84
2022-10-21T12:20:07.055Z,14.85
2022-10-21T12:21:06.954Z,14.85
2022-10-21T12:22:06.959Z,14.86
2022-10-21T12:23:06.949Z,14.82
2022-10-21T12:24:06.944Z,14.88
2022-10-21T12:25:06.963Z,14.88
2022-10-21T12:26:06.962Z,14.94
2022-10-21T12:27:06.943Z,14.91
2022-10-21T12:28:06.968Z,14.91
2022-10-21T12:29:06.938Z,14.86
2022-10-21T12:30:07.111Z,14.86
2022-10-21T12:31:06.929Z,14.89
2022-10-21T12:32:06.948Z,14.84
2022-10-21T12:33:06.943Z,14.88
2022-10-21T12:34:06.941Z,14.81
2022-10-21T12:35:06.930Z,14.84
2022-10-21T12:36:06.942Z,14.88
2022-10-21T12:37:06.944Z,14.84
2022-10-21T12:38:06.928Z,14.91
2022-10-21T12:39:06.956Z,14.94
2022-10-21T12:40:06.965Z,14.91
2022-10-21T12:41:06.926Z,14.96
2022-10-21T12:42:06.916Z,14.89
2022-10-21T12:43:06.945Z,14.94
2022-10-21T12:44:06.909Z,14.94
2022-10-21T12:45:06.914Z,15.00
2022-10-21T12:46:06.912Z,14.99
2022-10-21T12:47:06.948Z,14.99
2022-10-21T12:48:06.922Z,14.94
2022-10-21T12:49:06.910Z,15.04
2022-10-21T12:50:06.900Z,15.04
2022-10-21T12:51:06.914Z,15.00
2022-10-21T12:52:06.893Z,15.04
2022-10-21T12:53:06.907Z,15.02
2022-10-21T12:54:06.889Z,15.03
2022-10-21T12:55:06.881Z,15.03
2022-10-21T12:56:06.883Z,15.14
2022-10-21T12:57:06.879Z,15.06
2022-10-21T12:58:06.880Z,15.03